createdAt,value
2019-06-20T00:02:07.025Z,17.50
2019-06-20T00:04:55.223Z,17.50
2019-06-20T00:07:43.305Z,17.40
2019-06-20T00:13:40.554Z,17.50
2019-06-20T00:16:28.734Z,17.50
2019-06-20T00:19:16.874Z,17.50
2019-06-20T00:22:13.324Z,17.50
2019-06-20T00:25:02.913Z,17.50
2019-06-20T00:27:51.505Z,17.60
2019-06-20T00:30:32.314Z,17.60
2019-06-20T00:35:56.677Z,17.50
2019-06-20T00:38:37.994Z,17.60
2019-06-20T00:41:19.035Z,17.60
2019-06-20T00:43:59.576Z,17.60
2019-06-20T00:46:40.765Z,17.60
2019-06-20T00:49:21.655Z,17.60
2019-06-20T00:52:02.202Z,17.60
2019-06-20T00:54:43.266Z,17.60
2019-06-20T00:57:23.788Z,17.60
2019-06-20T01:00:05.116Z,17.60
2019-06-20T01:02:45.868Z,17.50
2019-06-20T01:05:27.210Z,17.60
2019-06-20T01:08:08.221Z,17.60
2019-06-20T01:10:51.634Z,17.60
2019-06-20T01:13:34.164Z,17.60
2019-06-20T01:16:14.961Z,17.60
2019-06-20T01:18:56.133Z,17.60
2019-06-20T01:21:37.430Z,17.60
2019-06-20T01:24:18.506Z,17.60
2019-06-20T01:26:59.490Z,17.70
2019-06-20T01:29:40.362Z,17.70
2019-06-20T01:32:21.172Z,17.70
2019-06-20T01:35:02.769Z,17.60
2019-06-20T01:37:43.296Z,17.70
2019-06-20T01:40:23.850Z,17.60
2019-06-20T01:43:04.892Z,17.50
2019-06-20T01:45:45.964Z,17.50
2019-06-20T01:51:06.183Z,17.50
2019-06-20T01:53:47.741Z,17.50
2019-06-20T01:56:29.187Z,17.50
2019-06-20T01:59:10.633Z,17.50
2019-06-20T02:01:51.983Z,17.60
2019-06-20T02:04:32.619Z,17.60
2019-06-20T02:07:13.665Z,17.60
2019-06-20T02:09:42.541Z,17.60
2019-06-20T02:12:11.442Z,17.60
2019-06-20T02:14:40.234Z,17.60
2019-06-20T02:17:28.390Z,17.60
2019-06-20T02:20:28.929Z,17.60
2019-06-20T02:23:17.067Z,17.60
2019-06-20T02:26:05.214Z,17.60
2019-06-20T02:28:53.353Z,17.60
2019-06-20T02:31:34.539Z,17.70
2019-06-20T02:34:15.821Z,17.70
2019-06-20T02:36:57.322Z,17.70
2019-06-20T02:39:38.079Z,17.70
2019-06-20T02:42:18.859Z,17.70
2019-06-20T02:44:59.703Z,17.70
2019-06-20T02:47:40.614Z,17.70
2019-06-20T02:50:21.547Z,17.70
2019-06-20T02:53:02.207Z,17.70
2019-06-20T02:55:43.159Z,17.70
2019-06-20T02:58:24.549Z,17.60
2019-06-20T03:01:05.401Z,17.60
2019-06-20T03:03:46.811Z,17.60
2019-06-20T03:06:28.027Z,17.70
2019-06-20T03:09:08.902Z,17.60
2019-06-20T03:11:49.681Z,17.70
2019-06-20T03:14:44.663Z,17.70
2019-06-20T03:17:13.539Z,17.70
2019-06-20T03:19:54.440Z,17.70
2019-06-20T03:22:35.398Z,17.60
2019-06-20T03:25:16.719Z,17.70
2019-06-20T03:27:57.514Z,17.70
2019-06-20T03:30:38.367Z,17.70
2019-06-20T03:33:19.519Z,17.70
2019-06-20T03:36:00.708Z,17.70
2019-06-20T03:38:41.795Z,17.60
2019-06-20T03:41:23.075Z,17.70
2019-06-20T03:44:04.344Z,17.70
2019-06-20T03:46:44.890Z,17.70
2019-06-20T03:49:26.190Z,17.70
2019-06-20T03:52:07.504Z,17.70
2019-06-20T03:54:48.623Z,17.80
2019-06-20T03:57:17.613Z,17.80
2019-06-20T04:00:05.808Z,17.80
2019-06-20T04:02:53.972Z,17.80
2019-06-20T04:05:42.017Z,17.80
2019-06-20T04:08:30.213Z,17.80
2019-06-20T04:14:08.642Z,17.80
2019-06-20T04:16:57.020Z,17.70
2019-06-20T04:19:45.194Z,17.70
2019-06-20T04:22:33.288Z,17.70
2019-06-20T04:25:21.379Z,17.80
2019-06-20T04:28:09.663Z,17.80
2019-06-20T04:30:57.839Z,17.90
2019-06-20T04:33:45.951Z,17.80
2019-06-20T04:36:34.152Z,17.80
2019-06-20T04:39:22.153Z,17.80
2019-06-20T04:42:10.320Z,17.70
2019-06-20T04:48:00.300Z,17.50
2019-06-20T04:50:41.049Z,17.40
2019-06-20T04:53:09.909Z,17.30
2019-06-20T04:55:57.960Z,17.40
2019-06-20T04:58:46.234Z,17.30
2019-06-20T05:01:34.297Z,17.20
2019-06-20T05:04:22.405Z,17.30
2019-06-20T05:10:22.514Z,17.20
2019-06-20T05:13:10.784Z,17.30
2019-06-20T05:15:58.931Z,17.30
2019-06-20T05:18:47.134Z,17.20
2019-06-20T05:21:35.244Z,17.20
2019-06-20T05:24:25.746Z,17.20
2019-06-20T05:27:15.436Z,17.20
2019-06-20T05:30:03.827Z,17.20
2019-06-20T05:32:52.132Z,17.20
2019-06-20T05:35:40.666Z,17.10
2019-06-20T05:38:31.637Z,17.20
2019-06-20T05:41:20.848Z,17.20
2019-06-20T05:56:03.818Z,17.40
2019-06-20T06:13:47.501Z,17.60
2019-06-20T06:16:38.805Z,17.50
2019-06-20T06:23:09.058Z,17.50
2019-06-20T06:28:53.369Z,17.40
2019-06-20T06:34:40.068Z,17.30
2019-06-20T06:37:28.441Z,17.20
2019-06-20T06:46:25.376Z,17.30
2019-06-20T06:49:06.729Z,17.40
2019-06-20T06:51:48.566Z,17.30
2019-06-20T06:54:33.474Z,17.30
2019-06-20T06:59:58.131Z,17.30
2019-06-20T07:02:39.658Z,17.30
2019-06-20T07:05:21.425Z,17.30
2019-06-20T07:08:03.007Z,17.30
2019-06-20T07:10:46.513Z,17.40
2019-06-20T07:16:15.689Z,17.40
2019-06-20T07:18:56.839Z,17.40
2019-06-20T07:21:38.005Z,17.30
2019-06-20T07:24:19.389Z,17.30
2019-06-20T07:27:03.235Z,17.30
2019-06-20T07:29:45.030Z,17.30
2019-06-20T07:32:17.386Z,17.30
2019-06-20T07:34:49.257Z,17.30
2019-06-20T07:37:37.490Z,17.30
2019-06-20T07:40:26.128Z,17.20
2019-06-20T07:43:33.879Z,17.20
2019-06-20T07:46:22.509Z,17.30
2019-06-20T07:52:10.783Z,17.30
2019-06-20T07:54:59.311Z,17.20
2019-06-20T07:58:25.729Z,17.20
2019-06-20T08:04:07.854Z,17.10
2019-06-20T08:06:59.511Z,17.10
2019-06-20T08:10:07.295Z,17.00
2019-06-20T08:12:56.362Z,17.00
2019-06-20T08:24:55.014Z,17.20
2019-06-20T08:28:04.436Z,17.30
2019-06-20T08:30:56.062Z,17.50
2019-06-20T08:33:38.505Z,17.80
2019-06-20T08:36:20.133Z,17.90
2019-06-20T08:39:02.631Z,17.90
2019-06-20T08:41:44.063Z,18.10
2019-06-20T08:44:26.622Z,18.10
2019-06-20T08:47:07.572Z,18.10
2019-06-20T08:49:48.647Z,18.20
2019-06-20T08:52:29.377Z,18.30
2019-06-20T08:55:01.446Z,18.50
2019-06-20T08:57:49.700Z,18.60
2019-06-20T09:00:38.199Z,18.70
2019-06-20T09:03:26.921Z,18.90
2019-06-20T09:06:15.211Z,18.80
2019-06-20T09:09:06.223Z,18.40
2019-06-20T09:11:55.391Z,18.30
2019-06-20T09:14:44.573Z,18.00
2019-06-20T09:17:32.915Z,17.80
2019-06-20T09:20:21.197Z,17.80
2019-06-20T09:23:09.657Z,17.90
2019-06-20T09:25:57.745Z,18.30
2019-06-20T09:29:05.454Z,18.50
2019-06-20T09:31:54.128Z,18.40
2019-06-20T09:34:42.611Z,18.20
2019-06-20T09:40:53.149Z,18.60
2019-06-20T09:44:04.761Z,18.60
2019-06-20T09:49:55.615Z,18.90
2019-06-20T09:52:35.880Z,19.30
2019-06-20T09:55:17.177Z,19.00
2019-06-20T09:58:06.734Z,19.00
2019-06-20T10:00:48.995Z,18.80
2019-06-20T10:03:30.754Z,18.50
2019-06-20T10:06:14.384Z,18.60
2019-06-20T10:11:45.521Z,18.70
2019-06-20T10:14:15.613Z,19.20
2019-06-20T10:19:48.295Z,20.20
2019-06-20T10:28:26.165Z,19.50
2019-06-20T10:31:14.448Z,19.20
2019-06-20T10:34:02.876Z,19.20
2019-06-20T10:36:52.379Z,19.30
2019-06-20T10:39:45.840Z,19.10
2019-06-20T10:42:37.553Z,19.00
2019-06-20T10:45:26.334Z,18.90
2019-06-20T10:48:14.773Z,18.90
2019-06-20T10:51:15.295Z,19.10
2019-06-20T10:53:57.015Z,19.20
2019-06-20T10:56:37.692Z,19.40
2019-06-20T10:59:18.530Z,19.00
2019-06-20T11:01:59.690Z,18.70
2019-06-20T11:04:44.084Z,18.60
2019-06-20T11:07:25.467Z,18.80
2019-06-20T11:10:07.081Z,18.70
2019-06-20T11:12:55.042Z,18.50
2019-06-20T11:15:29.540Z,18.40
2019-06-20T11:18:17.862Z,18.20
2019-06-20T11:21:06.067Z,18.20
2019-06-20T11:23:54.517Z,18.50
2019-06-20T11:26:43.136Z,18.50
2019-06-20T11:29:32.079Z,18.70
2019-06-20T11:32:26.315Z,18.90
2019-06-20T11:38:06.642Z,19.50
2019-06-20T11:40:39.442Z,20.30
2019-06-20T11:46:06.804Z,20.90
2019-06-20T11:48:55.529Z,21.00
2019-06-20T11:51:55.240Z,21.40
2019-06-20T12:00:17.475Z,21.30
2019-06-20T12:08:40.761Z,21.70
2019-06-20T12:11:21.675Z,21.20
2019-06-20T12:25:46.907Z,22.50
2019-06-20T12:31:21.801Z,22.40
2019-06-20T12:34:06.419Z,21.80
2019-06-20T12:36:54.686Z,22.30
2019-06-20T12:45:29.915Z,22.40
2019-06-20T12:59:41.394Z,22.50
2019-06-20T13:11:39.104Z,22.50
2019-06-20T13:30:17.293Z,22.90
2019-06-20T13:33:05.014Z,22.70
2019-06-20T13:35:53.305Z,23.30
2019-06-20T13:38:57.388Z,23.00
2019-06-20T13:41:36.773Z,22.70
2019-06-20T13:44:25.202Z,22.60
2019-06-20T13:47:14.048Z,22.80
2019-06-20T13:50:02.795Z,23.10
2019-06-20T13:52:46.448Z,23.10
2019-06-20T13:55:26.425Z,23.20
2019-06-20T13:58:08.085Z,23.00
2019-06-20T14:00:50.991Z,23.10
2019-06-20T14:06:25.241Z,23.50
2019-06-20T14:09:06.565Z,23.80
2019-06-20T14:11:47.525Z,23.90
2019-06-20T14:17:11.683Z,22.20
2019-06-20T14:40:21.112Z,22.40
2019-06-20T14:43:02.867Z,22.40
2019-06-20T14:45:37.992Z,22.00
2019-06-20T14:48:25.393Z,22.70
2019-06-20T14:54:10.866Z,21.80
2019-06-20T14:56:59.231Z,21.00
2019-06-20T15:39:44.314Z,19.50
2019-06-20T15:42:32.915Z,19.60
2019-06-20T15:45:21.323Z,19.60
2019-06-20T15:47:50.377Z,19.60
2019-06-20T15:50:38.828Z,19.50
2019-06-20T15:53:27.151Z,19.50
2019-06-20T15:56:15.390Z,19.60
2019-06-20T15:59:03.884Z,19.40
2019-06-20T16:01:52.503Z,19.50
2019-06-20T16:04:40.876Z,19.80
2019-06-20T16:07:29.193Z,20.10
2019-06-20T16:10:17.390Z,20.80
2019-06-20T16:13:05.739Z,20.80
2019-06-20T16:15:53.975Z,21.00
2019-06-20T16:18:42.255Z,20.60
2019-06-20T16:21:30.330Z,20.50
2019-06-20T16:24:37.522Z,20.50
2019-06-20T16:27:26.114Z,20.30
2019-06-20T16:30:14.385Z,20.10
2019-06-20T16:33:02.742Z,20.00
2019-06-20T16:35:51.229Z,20.10
2019-06-20T17:05:34.723Z,20.00
2019-06-20T17:22:43.900Z,19.50
2019-06-20T17:28:40.287Z,19.30
2019-06-20T17:34:49.960Z,19.20
2019-06-20T17:37:40.069Z,19.10
2019-06-20T17:40:28.647Z,19.00
2019-06-20T17:58:06.480Z,19.30
2019-06-20T18:12:30.126Z,18.80
2019-06-20T18:36:47.616Z,18.50
2019-06-20T19:02:32.731Z,18.20
2019-06-20T21:04:28.635Z,17.30
2019-06-20T21:06:57.771Z,17.30
2019-06-20T21:37:36.857Z,17.00
2019-06-20T21:40:46.753Z,16.90
2019-06-20T21:46:17.010Z,16.90
2019-06-20T21:49:21.429Z,16.80
2019-06-20T21:52:17.138Z,16.80
2019-06-20T21:55:28.437Z,16.70
2019-06-20T22:04:01.917Z,16.70
2019-06-20T22:09:17.100Z,16.70
2019-06-20T22:12:00.673Z,16.70
2019-06-20T22:14:42.732Z,16.60
2019-06-20T22:20:10.818Z,16.70
2019-06-20T22:28:29.226Z,16.60
2019-06-20T22:31:43.752Z,16.60
2019-06-20T22:42:39.526Z,16.50
2019-06-20T23:11:19.443Z,16.30
2019-06-20T23:14:01.033Z,16.30
2019-06-20T23:16:42.590Z,16.30
2019-06-20T23:19:24.960Z,16.20
2019-06-20T23:22:07.646Z,16.30
2019-06-20T23:24:51.083Z,16.30
2019-06-20T23:33:06.752Z,16.20
2019-06-20T23:35:55.442Z,16.20
2019-06-20T23:38:43.852Z,16.10
2019-06-20T23:41:33.946Z,16.10
2019-06-20T23:44:03.213Z,16.10
2019-06-20T23:46:51.976Z,16.10
2019-06-20T23:49:28.515Z,16.10
2019-06-20T23:52:03.994Z,16.00
2019-06-20T23:54:33.820Z,16.10
2019-06-20T23:57:25.499Z,16.00
